sensor_id;sensor_type;location;lat;lon;timestamp;P1;durP1;ratioP1;P2;durP2;ratioP2
72325;SDS011;60278;47.980;18.780;2023-12-20T00:02:47;38.22;;;17.63;;
72325;SDS011;60278;47.980;18.780;2023-12-20T00:05:49;39.95;;;16.77;;
72325;SDS011;60278;47.980;18.780;2023-12-20T00:08:52;44.50;;;15.53;;
72325;SDS011;60278;47.980;18.780;2023-12-20T00:11:54;28.90;;;14.05;;
72325;SDS011;60278;47.980;18.780;2023-12-20T00:14:56;33.40;;;14.90;;
72325;SDS011;60278;47.980;18.780;2023-12-20T00:17:58;37.83;;;14.65;;
72325;SDS011;60278;47.980;18.780;2023-12-20T00:21:00;31.42;;;13.45;;
72325;SDS011;60278;47.980;18.780;2023-12-20T00:24:02;30.13;;;13.33;;
72325;SDS011;60278;47.980;18.780;2023-12-20T00:27:04;32.15;;;12.85;;
72325;SDS011;60278;47.980;18.780;2023-12-20T00:30:06;34.22;;;12.73;;
72325;SDS011;60278;47.980;18.780;2023-12-20T00:33:08;41.58;;;19.67;;
72325;SDS011;60278;47.980;18.780;2023-12-20T00:36:11;28.02;;;11.80;;
72325;SDS011;60278;47.980;18.780;2023-12-20T00:39:13;30.90;;;12.90;;
72325;SDS011;60278;47.980;18.780;2023-12-20T00:42:15;31.85;;;13.15;;
72325;SDS011;60278;47.980;18.780;2023-12-20T00:45:17;39.15;;;12.18;;
72325;SDS011;60278;47.980;18.780;2023-12-20T00:48:19;33.20;;;12.25;;
72325;SDS011;60278;47.980;18.780;2023-12-20T00:51:21;28.50;;;13.43;;
72325;SDS011;60278;47.980;18.780;2023-12-20T00:54:24;39.50;;;12.50;;
72325;SDS011;60278;47.980;18.780;2023-12-20T00:57:26;34.67;;;12.55;;
72325;SDS011;60278;47.980;18.780;2023-12-20T01:00:28;30.15;;;12.38;;
72325;SDS011;60278;47.980;18.780;2023-12-20T01:03:30;44.17;;;13.90;;
72325;SDS011;60278;47.980;18.780;2023-12-20T01:06:32;44.28;;;12.40;;
72325;SDS011;60278;47.980;18.780;2023-12-20T01:09:34;38.00;;;11.53;;
72325;SDS011;60278;47.980;18.780;2023-12-20T01:12:36;30.38;;;11.63;;
72325;SDS011;60278;47.980;18.780;2023-12-20T01:15:38;26.98;;;11.48;;
72325;SDS011;60278;47.980;18.780;2023-12-20T01:18:41;27.88;;;12.38;;
72325;SDS011;60278;47.980;18.780;2023-12-20T01:21:43;33.50;;;11.90;;
72325;SDS011;60278;47.980;18.780;2023-12-20T01:24:45;27.33;;;11.83;;
72325;SDS011;60278;47.980;18.780;2023-12-20T01:27:47;33.88;;;11.38;;
72325;SDS011;60278;47.980;18.780;2023-12-20T01:30:49;29.20;;;11.93;;
72325;SDS011;60278;47.980;18.780;2023-12-20T01:33:52;31.70;;;12.40;;
72325;SDS011;60278;47.980;18.780;2023-12-20T01:36:54;28.80;;;11.98;;
72325;SDS011;60278;47.980;18.780;2023-12-20T01:39:56;33.17;;;11.63;;
72325;SDS011;60278;47.980;18.780;2023-12-20T01:43:01;42.72;;;12.15;;
72325;SDS011;60278;47.980;18.780;2023-12-20T01:46:04;38.50;;;13.10;;
72325;SDS011;60278;47.980;18.780;2023-12-20T01:49:07;38.25;;;11.77;;
72325;SDS011;60278;47.980;18.780;2023-12-20T01:52:09;31.10;;;11.13;;
72325;SDS011;60278;47.980;18.780;2023-12-20T01:55:14;64.47;;;11.07;;
72325;SDS011;60278;47.980;18.780;2023-12-20T01:58:17;39.03;;;10.80;;
72325;SDS011;60278;47.980;18.780;2023-12-20T02:01:20;43.75;;;11.43;;
72325;SDS011;60278;47.980;18.780;2023-12-20T02:04:23;74.85;;;13.85;;
72325;SDS011;60278;47.980;18.780;2023-12-20T02:07:25;32.83;;;12.73;;
72325;SDS011;60278;47.980;18.780;2023-12-20T02:10:28;72.57;;;13.65;;
72325;SDS011;60278;47.980;18.780;2023-12-20T02:13:31;46.55;;;10.57;;
72325;SDS011;60278;47.980;18.780;2023-12-20T02:16:33;55.10;;;10.23;;
72325;SDS011;60278;47.980;18.780;2023-12-20T02:19:35;53.58;;;11.15;;
72325;SDS011;60278;47.980;18.780;2023-12-20T02:22:37;30.83;;;10.73;;
72325;SDS011;60278;47.980;18.780;2023-12-20T02:25:39;55.60;;;11.45;;
72325;SDS011;60278;47.980;18.780;2023-12-20T02:28:42;43.22;;;10.48;;
72325;SDS011;60278;47.980;18.780;2023-12-20T02:31:44;37.85;;;13.35;;
72325;SDS011;60278;47.980;18.780;2023-12-20T02:34:47;54.28;;;14.75;;
72325;SDS011;60278;47.980;18.780;2023-12-20T02:37:49;58.97;;;13.73;;
72325;SDS011;60278;47.980;18.780;2023-12-20T02:40:51;52.80;;;14.82;;
72325;SDS011;60278;47.980;18.780;2023-12-20T02:43:53;49.30;;;15.07;;
72325;SDS011;60278;47.980;18.780;2023-12-20T02:46:55;49.97;;;15.88;;
72325;SDS011;60278;47.980;18.780;2023-12-20T02:49:57;37.15;;;15.13;;
72325;SDS011;60278;47.980;18.780;2023-12-20T02:53:00;39.50;;;15.23;;
72325;SDS011;60278;47.980;18.780;2023-12-20T02:56:02;27.25;;;12.13;;
72325;SDS011;60278;47.980;18.780;2023-12-20T02:59:04;33.28;;;11.88;;
72325;SDS011;60278;47.980;18.780;2023-12-20T03:02:10;35.10;;;11.27;;
72325;SDS011;60278;47.980;18.780;2023-12-20T03:05:12;44.97;;;12.20;;
72325;SDS011;60278;47.980;18.780;2023-12-20T03:08:14;53.93;;;12.77;;
72325;SDS011;60278;47.980;18.780;2023-12-20T03:11:16;61.38;;;13.13;;
72325;SDS011;60278;47.980;18.780;2023-12-20T03:14:18;33.60;;;12.07;;
72325;SDS011;60278;47.980;18.780;2023-12-20T03:17:20;29.13;;;12.20;;
72325;SDS011;60278;47.980;18.780;2023-12-20T03:20:23;38.65;;;11.45;;
72325;SDS011;60278;47.980;18.780;2023-12-20T03:23:25;35.67;;;11.30;;
72325;SDS011;60278;47.980;18.780;2023-12-20T03:26:28;33.55;;;11.05;;
72325;SDS011;60278;47.980;18.780;2023-12-20T03:29:30;29.35;;;11.05;;
72325;SDS011;60278;47.980;18.780;2023-12-20T03:32:32;42.28;;;10.95;;
72325;SDS011;60278;47.980;18.780;2023-12-20T03:35:34;39.90;;;11.68;;
72325;SDS011;60278;47.980;18.780;2023-12-20T03:38:36;38.90;;;9.30;;
72325;SDS011;60278;47.980;18.780;2023-12-20T03:41:38;66.95;;;26.05;;
72325;SDS011;60278;47.980;18.780;2023-12-20T03:44:40;43.85;;;20.67;;
72325;SDS011;60278;47.980;18.780;2023-12-20T03:47:42;84.25;;;30.60;;
72325;SDS011;60278;47.980;18.780;2023-12-20T03:50:45;33.23;;;13.47;;
72325;SDS011;60278;47.980;18.780;2023-12-20T03:53:47;22.50;;;8.77;;
72325;SDS011;60278;47.980;18.780;2023-12-20T03:56:49;42.05;;;14.65;;
72325;SDS011;60278;47.980;18.780;2023-12-20T03:59:51;28.40;;;12.60;;
72325;SDS011;60278;47.980;18.780;2023-12-20T04:02:53;41.13;;;13.15;;
72325;SDS011;60278;47.980;18.780;2023-12-20T04:05:55;55.80;;;22.47;;
72325;SDS011;60278;47.980;18.780;2023-12-20T04:08:57;37.92;;;11.82;;
72325;SDS011;60278;47.980;18.780;2023-12-20T04:11:59;37.45;;;12.07;;
72325;SDS011;60278;47.980;18.780;2023-12-20T04:15:01;30.98;;;12.50;;
72325;SDS011;60278;47.980;18.780;2023-12-20T04:18:03;27.27;;;11.82;;
72325;SDS011;60278;47.980;18.780;2023-12-20T04:21:05;26.57;;;11.77;;
72325;SDS011;60278;47.980;18.780;2023-12-20T04:24:08;25.10;;;12.00;;
72325;SDS011;60278;47.980;18.780;2023-12-20T04:27:10;26.13;;;11.80;;
72325;SDS011;60278;47.980;18.780;2023-12-20T04:30:13;31.95;;;13.40;;
72325;SDS011;60278;47.980;18.780;2023-12-20T04:33:15;29.88;;;12.23;;
72325;SDS011;60278;47.980;18.780;2023-12-20T04:36:17;30.93;;;13.30;;
72325;SDS011;60278;47.980;18.780;2023-12-20T04:39:19;27.27;;;12.80;;
72325;SDS011;60278;47.980;18.780;2023-12-20T04:42:21;34.03;;;12.05;;
72325;SDS011;60278;47.980;18.780;2023-12-20T04:45:23;34.72;;;13.43;;
72325;SDS011;60278;47.980;18.780;2023-12-20T04:48:26;46.05;;;18.17;;
72325;SDS011;60278;47.980;18.780;2023-12-20T04:51:28;55.53;;;14.67;;
72325;SDS011;60278;47.980;18.780;2023-12-20T04:54:30;44.33;;;15.60;;
72325;SDS011;60278;47.980;18.780;2023-12-20T04:57:33;40.33;;;16.55;;
72325;SDS011;60278;47.980;18.780;2023-12-20T05:00:35;50.58;;;23.80;;
72325;SDS011;60278;47.980;18.780;2023-12-20T05:03:37;50.55;;;21.15;;
72325;SDS011;60278;47.980;18.780;2023-12-20T05:06:39;44.67;;;16.53;;
72325;SDS011;60278;47.980;18.780;2023-12-20T05:09:41;36.15;;;15.80;;
72325;SDS011;60278;47.980;18.780;2023-12-20T05:12:43;38.30;;;14.00;;
72325;SDS011;60278;47.980;18.780;2023-12-20T05:15:45;44.17;;;15.27;;
72325;SDS011;60278;47.980;18.780;2023-12-20T05:18:47;33.38;;;13.48;;
72325;SDS011;60278;47.980;18.780;2023-12-20T05:21:50;32.47;;;14.77;;
72325;SDS011;60278;47.980;18.780;2023-12-20T05:24:52;29.35;;;13.10;;
72325;SDS011;60278;47.980;18.780;2023-12-20T05:27:54;29.13;;;11.57;;
72325;SDS011;60278;47.980;18.780;2023-12-20T05:30:56;33.53;;;13.15;;
72325;SDS011;60278;47.980;18.780;2023-12-20T05:33:58;34.80;;;15.20;;
72325;SDS011;60278;47.980;18.780;2023-12-20T05:37:01;29.30;;;13.90;;
72325;SDS011;60278;47.980;18.780;2023-12-20T05:40:04;37.90;;;14.40;;
72325;SDS011;60278;47.980;18.780;2023-12-20T05:43:06;39.15;;;16.20;;
72325;SDS011;60278;47.980;18.780;2023-12-20T05:46:10;30.00;;;14.48;;
72325;SDS011;60278;47.980;18.780;2023-12-20T05:49:12;50.45;;;15.80;;
72325;SDS011;60278;47.980;18.780;2023-12-20T05:52:14;47.47;;;17.77;;
72325;SDS011;60278;47.980;18.780;2023-12-20T05:55:16;52.47;;;17.83;;
72325;SDS011;60278;47.980;18.780;2023-12-20T05:58:18;58.55;;;15.27;;
72325;SDS011;60278;47.980;18.780;2023-12-20T06:01:20;74.28;;;25.05;;
72325;SDS011;60278;47.980;18.780;2023-12-20T06:04:23;48.05;;;14.40;;
72325;SDS011;60278;47.980;18.780;2023-12-20T06:07:25;57.03;;;12.10;;
72325;SDS011;60278;47.980;18.780;2023-12-20T06:10:27;47.63;;;11.43;;
72325;SDS011;60278;47.980;18.780;2023-12-20T06:13:29;57.60;;;11.43;;
72325;SDS011;60278;47.980;18.780;2023-12-20T06:16:31;56.45;;;13.82;;
72325;SDS011;60278;47.980;18.780;2023-12-20T06:19:34;47.50;;;14.32;;
72325;SDS011;60278;47.980;18.780;2023-12-20T06:22:36;35.03;;;11.77;;
72325;SDS011;60278;47.980;18.780;2023-12-20T06:25:38;52.72;;;12.13;;
72325;SDS011;60278;47.980;18.780;2023-12-20T06:28:40;55.03;;;15.70;;
72325;SDS011;60278;47.980;18.780;2023-12-20T06:31:43;56.20;;;12.20;;
72325;SDS011;60278;47.980;18.780;2023-12-20T06:34:45;45.60;;;11.50;;
72325;SDS011;60278;47.980;18.780;2023-12-20T06:37:47;106.87;;;27.57;;
72325;SDS011;60278;47.980;18.780;2023-12-20T06:40:49;58.00;;;16.00;;
72325;SDS011;60278;47.980;18.780;2023-12-20T06:43:51;72.65;;;14.85;;
72325;SDS011;60278;47.980;18.780;2023-12-20T06:46:55;48.25;;;14.57;;
72325;SDS011;60278;47.980;18.780;2023-12-20T06:49:57;60.63;;;13.35;;
72325;SDS011;60278;47.980;18.780;2023-12-20T06:52:59;45.57;;;16.47;;
72325;SDS011;60278;47.980;18.780;2023-12-20T06:56:01;48.08;;;13.95;;
72325;SDS011;60278;47.980;18.780;2023-12-20T06:59:04;48.53;;;12.52;;
72325;SDS011;60278;47.980;18.780;2023-12-20T07:02:06;66.63;;;19.48;;
72325;SDS011;60278;47.980;18.780;2023-12-20T07:05:18;42.30;;;13.90;;
72325;SDS011;60278;47.980;18.780;2023-12-20T07:08:22;38.43;;;11.60;;
72325;SDS011;60278;47.980;18.780;2023-12-20T07:11:24;37.42;;;12.18;;
72325;SDS011;60278;47.980;18.780;2023-12-20T07:14:26;32.50;;;10.82;;
72325;SDS011;60278;47.980;18.780;2023-12-20T07:17:29;23.83;;;9.70;;
72325;SDS011;60278;47.980;18.780;2023-12-20T07:20:32;29.85;;;12.52;;
72325;SDS011;60278;47.980;18.780;2023-12-20T07:23:34;31.00;;;12.40;;
72325;SDS011;60278;47.980;18.780;2023-12-20T07:26:36;35.22;;;11.63;;
72325;SDS011;60278;47.980;18.780;2023-12-20T07:29:40;32.67;;;12.30;;
72325;SDS011;60278;47.980;18.780;2023-12-20T07:32:42;30.63;;;11.30;;
72325;SDS011;60278;47.980;18.780;2023-12-20T07:35:44;67.63;;;26.13;;
72325;SDS011;60278;47.980;18.780;2023-12-20T07:38:47;62.73;;;23.53;;
72325;SDS011;60278;47.980;18.780;2023-12-20T07:41:50;40.25;;;13.30;;
72325;SDS011;60278;47.980;18.780;2023-12-20T07:44:52;41.78;;;11.80;;
72325;SDS011;60278;47.980;18.780;2023-12-20T07:47:54;48.00;;;13.48;;
72325;SDS011;60278;47.980;18.780;2023-12-20T07:50:56;45.83;;;13.77;;
72325;SDS011;60278;47.980;18.780;2023-12-20T07:53:59;45.17;;;11.27;;
72325;SDS011;60278;47.980;18.780;2023-12-20T07:57:02;34.75;;;10.25;;
72325;SDS011;60278;47.980;18.780;2023-12-20T08:00:05;28.30;;;10.68;;
72325;SDS011;60278;47.980;18.780;2023-12-20T08:03:07;25.55;;;9.75;;
72325;SDS011;60278;47.980;18.780;2023-12-20T08:06:10;44.38;;;13.98;;
72325;SDS011;60278;47.980;18.780;2023-12-20T08:09:12;54.53;;;18.20;;
72325;SDS011;60278;47.980;18.780;2023-12-20T08:12:14;39.45;;;15.52;;
72325;SDS011;60278;47.980;18.780;2023-12-20T08:15:19;46.67;;;17.45;;
72325;SDS011;60278;47.980;18.780;2023-12-20T08:18:21;30.48;;;11.23;;
72325;SDS011;60278;47.980;18.780;2023-12-20T08:21:23;25.08;;;10.60;;
72325;SDS011;60278;47.980;18.780;2023-12-20T08:24:26;30.70;;;13.53;;
72325;SDS011;60278;47.980;18.780;2023-12-20T08:27:28;31.00;;;10.60;;
72325;SDS011;60278;47.980;18.780;2023-12-20T08:30:30;21.15;;;10.20;;
72325;SDS011;60278;47.980;18.780;2023-12-20T08:33:33;24.73;;;11.45;;
72325;SDS011;60278;47.980;18.780;2023-12-20T08:36:35;34.90;;;13.90;;
72325;SDS011;60278;47.980;18.780;2023-12-20T08:39:37;26.73;;;11.17;;
72325;SDS011;60278;47.980;18.780;2023-12-20T08:42:42;25.58;;;11.80;;
72325;SDS011;60278;47.980;18.780;2023-12-20T08:45:45;27.80;;;12.57;;
72325;SDS011;60278;47.980;18.780;2023-12-20T08:48:47;23.67;;;9.63;;
72325;SDS011;60278;47.980;18.780;2023-12-20T08:51:50;27.83;;;10.50;;
72325;SDS011;60278;47.980;18.780;2023-12-20T08:54:53;23.03;;;9.53;;
72325;SDS011;60278;47.980;18.780;2023-12-20T08:57:56;19.58;;;9.73;;
72325;SDS011;60278;47.980;18.780;2023-12-20T09:00:58;20.50;;;10.90;;
72325;SDS011;60278;47.980;18.780;2023-12-20T09:04:00;23.30;;;11.30;;
72325;SDS011;60278;47.980;18.780;2023-12-20T09:07:03;24.52;;;11.77;;
72325;SDS011;60278;47.980;18.780;2023-12-20T09:10:05;50.37;;;17.63;;
72325;SDS011;60278;47.980;18.780;2023-12-20T09:13:08;30.55;;;11.07;;
72325;SDS011;60278;47.980;18.780;2023-12-20T09:16:10;22.80;;;10.07;;
72325;SDS011;60278;47.980;18.780;2023-12-20T09:19:12;28.25;;;12.02;;
72325;SDS011;60278;47.980;18.780;2023-12-20T09:22:15;38.05;;;15.20;;
72325;SDS011;60278;47.980;18.780;2023-12-20T09:25:17;22.03;;;10.87;;
72325;SDS011;60278;47.980;18.780;2023-12-20T09:28:19;26.48;;;11.95;;
72325;SDS011;60278;47.980;18.780;2023-12-20T09:31:22;26.20;;;13.45;;
72325;SDS011;60278;47.980;18.780;2023-12-20T09:34:24;21.05;;;11.50;;
72325;SDS011;60278;47.980;18.780;2023-12-20T09:37:28;20.23;;;10.05;;
72325;SDS011;60278;47.980;18.780;2023-12-20T09:40:33;19.30;;;9.83;;
72325;SDS011;60278;47.980;18.780;2023-12-20T09:43:37;18.33;;;10.38;;
72325;SDS011;60278;47.980;18.780;2023-12-20T09:49:46;27.95;;;11.88;;
72325;SDS011;60278;47.980;18.780;2023-12-20T09:52:51;27.38;;;12.95;;
72325;SDS011;60278;47.980;18.780;2023-12-20T09:55:55;23.13;;;11.53;;
72325;SDS011;60278;47.980;18.780;2023-12-20T09:58:57;23.00;;;11.03;;
72325;SDS011;60278;47.980;18.780;2023-12-20T10:01:59;20.98;;;10.38;;
72325;SDS011;60278;47.980;18.780;2023-12-20T10:05:06;20.13;;;10.73;;
72325;SDS011;60278;47.980;18.780;2023-12-20T10:08:10;26.08;;;10.98;;
72325;SDS011;60278;47.980;18.780;2023-12-20T10:11:13;26.97;;;12.63;;
72325;SDS011;60278;47.980;18.780;2023-12-20T10:14:15;32.13;;;15.07;;
72325;SDS011;60278;47.980;18.780;2023-12-20T10:17:18;40.03;;;15.93;;
72325;SDS011;60278;47.980;18.780;2023-12-20T10:20:20;30.52;;;14.95;;
72325;SDS011;60278;47.980;18.780;2023-12-20T10:23:22;35.15;;;16.48;;
72325;SDS011;60278;47.980;18.780;2023-12-20T10:26:25;23.60;;;11.63;;
72325;SDS011;60278;47.980;18.780;2023-12-20T10:29:28;24.47;;;12.17;;
72325;SDS011;60278;47.980;18.780;2023-12-20T10:32:30;24.77;;;12.43;;
72325;SDS011;60278;47.980;18.780;2023-12-20T10:35:34;39.40;;;19.33;;
72325;SDS011;60278;47.980;18.780;2023-12-20T10:38:37;27.50;;;13.75;;
72325;SDS011;60278;47.980;18.780;2023-12-20T10:41:40;26.67;;;13.33;;
72325;SDS011;60278;47.980;18.780;2023-12-20T10:44:43;26.50;;;12.77;;
72325;SDS011;60278;47.980;18.780;2023-12-20T10:47:48;28.55;;;14.30;;
72325;SDS011;60278;47.980;18.780;2023-12-20T10:50:51;25.27;;;12.68;;
72325;SDS011;60278;47.980;18.780;2023-12-20T10:53:54;29.42;;;13.15;;
72325;SDS011;60278;47.980;18.780;2023-12-20T10:56:57;40.27;;;16.80;;
72325;SDS011;60278;47.980;18.780;2023-12-20T11:00:00;32.80;;;16.43;;
72325;SDS011;60278;47.980;18.780;2023-12-20T11:03:05;27.42;;;13.73;;
72325;SDS011;60278;47.980;18.780;2023-12-20T11:06:13;27.77;;;13.32;;
72325;SDS011;60278;47.980;18.780;2023-12-20T11:09:26;44.97;;;17.35;;
72325;SDS011;60278;47.980;18.780;2023-12-20T11:12:41;30.60;;;14.17;;
72325;SDS011;60278;47.980;18.780;2023-12-20T11:15:47;28.10;;;13.45;;
72325;SDS011;60278;47.980;18.780;2023-12-20T11:18:50;31.65;;;15.00;;
72325;SDS011;60278;47.980;18.780;2023-12-20T11:21:52;38.03;;;15.60;;
72325;SDS011;60278;47.980;18.780;2023-12-20T11:24:55;34.70;;;15.45;;
72325;SDS011;60278;47.980;18.780;2023-12-20T11:28:11;36.33;;;17.13;;
72325;SDS011;60278;47.980;18.780;2023-12-20T11:31:14;31.02;;;14.32;;
72325;SDS011;60278;47.980;18.780;2023-12-20T11:34:17;36.63;;;16.45;;
72325;SDS011;60278;47.980;18.780;2023-12-20T11:37:20;56.70;;;25.25;;
72325;SDS011;60278;47.980;18.780;2023-12-20T11:40:22;49.95;;;23.33;;
72325;SDS011;60278;47.980;18.780;2023-12-20T11:43:31;35.37;;;17.83;;
72325;SDS011;60278;47.980;18.780;2023-12-20T11:46:36;32.65;;;16.38;;
72325;SDS011;60278;47.980;18.780;2023-12-20T11:49:38;34.03;;;17.58;;
72325;SDS011;60278;47.980;18.780;2023-12-20T11:52:41;36.67;;;17.63;;
72325;SDS011;60278;47.980;18.780;2023-12-20T11:55:43;34.90;;;16.65;;
72325;SDS011;60278;47.980;18.780;2023-12-20T11:58:49;44.03;;;18.10;;
72325;SDS011;60278;47.980;18.780;2023-12-20T12:01:52;41.10;;;18.67;;
72325;SDS011;60278;47.980;18.780;2023-12-20T12:04:54;39.97;;;18.90;;
72325;SDS011;60278;47.980;18.780;2023-12-20T12:07:58;29.38;;;15.82;;
72325;SDS011;60278;47.980;18.780;2023-12-20T12:11:00;32.00;;;16.20;;
72325;SDS011;60278;47.980;18.780;2023-12-20T12:14:02;30.20;;;15.37;;
72325;SDS011;60278;47.980;18.780;2023-12-20T12:17:05;30.90;;;16.08;;
72325;SDS011;60278;47.980;18.780;2023-12-20T12:20:11;39.33;;;20.10;;
72325;SDS011;60278;47.980;18.780;2023-12-20T12:23:14;40.08;;;20.10;;
72325;SDS011;60278;47.980;18.780;2023-12-20T12:26:16;33.17;;;16.00;;
72325;SDS011;60278;47.980;18.780;2023-12-20T12:29:18;33.30;;;16.77;;
72325;SDS011;60278;47.980;18.780;2023-12-20T12:32:20;43.10;;;20.92;;
72325;SDS011;60278;47.980;18.780;2023-12-20T12:35:23;103.82;;;42.42;;
72325;SDS011;60278;47.980;18.780;2023-12-20T12:38:25;97.05;;;38.45;;
72325;SDS011;60278;47.980;18.780;2023-12-20T12:41:28;64.97;;;29.05;;
72325;SDS011;60278;47.980;18.780;2023-12-20T12:44:30;48.13;;;23.30;;
72325;SDS011;60278;47.980;18.780;2023-12-20T12:47:33;74.13;;;32.38;;
72325;SDS011;60278;47.980;18.780;2023-12-20T12:50:35;67.05;;;30.88;;
72325;SDS011;60278;47.980;18.780;2023-12-20T12:53:37;91.88;;;40.42;;
72325;SDS011;60278;47.980;18.780;2023-12-20T12:56:40;101.35;;;37.47;;
72325;SDS011;60278;47.980;18.780;2023-12-20T12:59:42;74.93;;;31.03;;
72325;SDS011;60278;47.980;18.780;2023-12-20T13:02:45;107.13;;;38.95;;
72325;SDS011;60278;47.980;18.780;2023-12-20T13:05:47;56.08;;;25.55;;
72325;SDS011;60278;47.980;18.780;2023-12-20T13:08:49;45.10;;;21.67;;
72325;SDS011;60278;47.980;18.780;2023-12-20T13:11:52;50.20;;;24.20;;
72325;SDS011;60278;47.980;18.780;2023-12-20T13:14:54;47.10;;;23.93;;
72325;SDS011;60278;47.980;18.780;2023-12-20T13:17:56;55.38;;;25.45;;
72325;SDS011;60278;47.980;18.780;2023-12-20T13:20:58;61.45;;;29.55;;
72325;SDS011;60278;47.980;18.780;2023-12-20T13:24:00;47.95;;;22.83;;
72325;SDS011;60278;47.980;18.780;2023-12-20T13:27:02;75.47;;;28.92;;
72325;SDS011;60278;47.980;18.780;2023-12-20T13:30:05;46.50;;;21.90;;
72325;SDS011;60278;47.980;18.780;2023-12-20T13:33:07;57.97;;;26.13;;
72325;SDS011;60278;47.980;18.780;2023-12-20T13:36:09;196.32;;;62.55;;
72325;SDS011;60278;47.980;18.780;2023-12-20T13:39:12;103.18;;;38.28;;
72325;SDS011;60278;47.980;18.780;2023-12-20T13:42:14;336.50;;;105.35;;
72325;SDS011;60278;47.980;18.780;2023-12-20T13:45:16;62.67;;;29.20;;
72325;SDS011;60278;47.980;18.780;2023-12-20T13:48:18;107.57;;;36.70;;
72325;SDS011;60278;47.980;18.780;2023-12-20T13:51:20;66.28;;;29.17;;
72325;SDS011;60278;47.980;18.780;2023-12-20T13:54:23;136.50;;;55.55;;
72325;SDS011;60278;47.980;18.780;2023-12-20T13:57:25;192.75;;;67.40;;
72325;SDS011;60278;47.980;18.780;2023-12-20T14:00:47;123.00;;;52.43;;
72325;SDS011;60278;47.980;18.780;2023-12-20T14:03:50;85.90;;;35.93;;
72325;SDS011;60278;47.980;18.780;2023-12-20T14:06:52;111.18;;;42.20;;
72325;SDS011;60278;47.980;18.780;2023-12-20T14:09:54;43.92;;;23.10;;
72325;SDS011;60278;47.980;18.780;2023-12-20T14:12:56;90.68;;;36.00;;
72325;SDS011;60278;47.980;18.780;2023-12-20T14:15:59;83.50;;;31.33;;
72325;SDS011;60278;47.980;18.780;2023-12-20T14:19:02;239.95;;;69.22;;
72325;SDS011;60278;47.980;18.780;2023-12-20T14:22:05;50.20;;;24.15;;
72325;SDS011;60278;47.980;18.780;2023-12-20T14:25:08;133.55;;;42.67;;
72325;SDS011;60278;47.980;18.780;2023-12-20T14:28:10;85.18;;;32.47;;
72325;SDS011;60278;47.980;18.780;2023-12-20T14:31:16;39.90;;;20.57;;
72325;SDS011;60278;47.980;18.780;2023-12-20T14:34:18;41.97;;;22.75;;
72325;SDS011;60278;47.980;18.780;2023-12-20T14:37:20;32.58;;;16.83;;
72325;SDS011;60278;47.980;18.780;2023-12-20T14:40:22;40.47;;;21.38;;
72325;SDS011;60278;47.980;18.780;2023-12-20T14:43:24;76.43;;;35.30;;
72325;SDS011;60278;47.980;18.780;2023-12-20T14:46:27;60.10;;;27.67;;
72325;SDS011;60278;47.980;18.780;2023-12-20T14:49:30;38.45;;;19.45;;
72325;SDS011;60278;47.980;18.780;2023-12-20T14:52:33;38.58;;;20.55;;
72325;SDS011;60278;47.980;18.780;2023-12-20T14:55:36;35.90;;;18.17;;
72325;SDS011;60278;47.980;18.780;2023-12-20T14:58:38;38.38;;;20.20;;
72325;SDS011;60278;47.980;18.780;2023-12-20T15:01:40;35.63;;;19.70;;
72325;SDS011;60278;47.980;18.780;2023-12-20T15:04:42;35.60;;;18.48;;
72325;SDS011;60278;47.980;18.780;2023-12-20T15:07:44;38.55;;;21.25;;
72325;SDS011;60278;47.980;18.780;2023-12-20T15:10:47;46.45;;;25.67;;
72325;SDS011;60278;47.980;18.780;2023-12-20T15:13:49;39.70;;;21.40;;
72325;SDS011;60278;47.980;18.780;2023-12-20T15:16:57;43.40;;;23.07;;
72325;SDS011;60278;47.980;18.780;2023-12-20T15:20:00;52.33;;;26.27;;
72325;SDS011;60278;47.980;18.780;2023-12-20T15:23:02;46.22;;;24.67;;
72325;SDS011;60278;47.980;18.780;2023-12-20T15:26:09;37.38;;;20.42;;
72325;SDS011;60278;47.980;18.780;2023-12-20T15:29:11;34.97;;;20.83;;
72325;SDS011;60278;47.980;18.780;2023-12-20T15:32:17;38.40;;;20.60;;
72325;SDS011;60278;47.980;18.780;2023-12-20T15:35:20;43.03;;;21.15;;
72325;SDS011;60278;47.980;18.780;2023-12-20T15:38:23;45.20;;;25.50;;
72325;SDS011;60278;47.980;18.780;2023-12-20T15:41:25;41.75;;;22.58;;
72325;SDS011;60278;47.980;18.780;2023-12-20T15:44:27;39.75;;;21.45;;
72325;SDS011;60278;47.980;18.780;2023-12-20T15:47:29;38.83;;;22.57;;
72325;SDS011;60278;47.980;18.780;2023-12-20T15:50:31;41.40;;;23.80;;
72325;SDS011;60278;47.980;18.780;2023-12-20T15:53:33;43.30;;;22.75;;
72325;SDS011;60278;47.980;18.780;2023-12-20T15:56:35;48.33;;;25.95;;
72325;SDS011;60278;47.980;18.780;2023-12-20T15:59:38;55.72;;;33.30;;
72325;SDS011;60278;47.980;18.780;2023-12-20T16:02:40;49.07;;;27.50;;
72325;SDS011;60278;47.980;18.780;2023-12-20T16:05:42;43.77;;;24.63;;
72325;SDS011;60278;47.980;18.780;2023-12-20T16:08:45;42.30;;;24.70;;
72325;SDS011;60278;47.980;18.780;2023-12-20T16:11:47;66.47;;;38.17;;
72325;SDS011;60278;47.980;18.780;2023-12-20T16:14:49;53.42;;;26.85;;
72325;SDS011;60278;47.980;18.780;2023-12-20T16:17:51;45.50;;;24.83;;
72325;SDS011;60278;47.980;18.780;2023-12-20T16:20:53;46.63;;;28.63;;
72325;SDS011;60278;47.980;18.780;2023-12-20T16:23:55;51.00;;;31.13;;
72325;SDS011;60278;47.980;18.780;2023-12-20T16:26:57;57.08;;;30.98;;
72325;SDS011;60278;47.980;18.780;2023-12-20T16:29:59;76.57;;;35.72;;
72325;SDS011;60278;47.980;18.780;2023-12-20T16:33:02;46.87;;;25.30;;
72325;SDS011;60278;47.980;18.780;2023-12-20T16:36:04;45.97;;;26.70;;
72325;SDS011;60278;47.980;18.780;2023-12-20T16:39:06;37.22;;;19.60;;
72325;SDS011;60278;47.980;18.780;2023-12-20T16:42:09;86.78;;;36.88;;
72325;SDS011;60278;47.980;18.780;2023-12-20T16:45:11;43.00;;;22.10;;
72325;SDS011;60278;47.980;18.780;2023-12-20T16:48:13;34.40;;;19.93;;
72325;SDS011;60278;47.980;18.780;2023-12-20T16:51:15;32.23;;;18.47;;
72325;SDS011;60278;47.980;18.780;2023-12-20T16:54:17;38.60;;;19.88;;
72325;SDS011;60278;47.980;18.780;2023-12-20T16:57:19;45.00;;;22.35;;
72325;SDS011;60278;47.980;18.780;2023-12-20T17:00:24;56.60;;;27.27;;
72325;SDS011;60278;47.980;18.780;2023-12-20T17:03:28;57.37;;;26.93;;
72325;SDS011;60278;47.980;18.780;2023-12-20T17:06:30;59.40;;;28.37;;
72325;SDS011;60278;47.980;18.780;2023-12-20T17:09:32;49.78;;;24.63;;
72325;SDS011;60278;47.980;18.780;2023-12-20T17:12:34;46.17;;;23.67;;
72325;SDS011;60278;47.980;18.780;2023-12-20T17:15:36;42.05;;;21.52;;
72325;SDS011;60278;47.980;18.780;2023-12-20T17:18:39;41.50;;;21.23;;
72325;SDS011;60278;47.980;18.780;2023-12-20T17:21:41;39.13;;;20.08;;
72325;SDS011;60278;47.980;18.780;2023-12-20T17:24:44;44.88;;;22.65;;
72325;SDS011;60278;47.980;18.780;2023-12-20T17:27:46;56.20;;;26.42;;
72325;SDS011;60278;47.980;18.780;2023-12-20T17:30:49;124.28;;;58.10;;
72325;SDS011;60278;47.980;18.780;2023-12-20T17:33:51;86.97;;;41.23;;
72325;SDS011;60278;47.980;18.780;2023-12-20T17:36:54;115.78;;;60.67;;